createdAt,value
2022-10-22T00:08:46.739Z,100133.33
2022-10-22T00:19:01.971Z,100121.87
2022-10-22T00:29:12.654Z,100126.57
2022-10-22T00:39:19.758Z,100106.79
2022-10-22T00:49:23.761Z,100088.05
2022-10-22T00:59:39.935Z,100082.94
2022-10-22T01:09:57.835Z,100079.20
2022-10-22T01:20:23.545Z,100074.82
2022-10-22T01:30:40.771Z,100054.41
2022-10-22T01:40:49.820Z,100047.05
2022-10-22T01:51:22.052Z,100054.82
2022-10-22T02:01:35.550Z,100052.82
2022-10-22T02:11:45.145Z,100039.45
2022-10-22T02:21:48.643Z,100034.84
2022-10-22T02:31:56.147Z,100032.50
2022-10-22T02:42:13.618Z,100036.43
2022-10-22T02:52:20.087Z,100040.15
2022-10-22T03:02:33.560Z,100043.50
2022-10-22T03:12:37.370Z,100036.30
2022-10-22T03:22:45.009Z,100025.86
2022-10-22T03:32:51.283Z,100023.47
2022-10-22T03:43:01.719Z,100040.31
2022-10-22T03:53:05.772Z,100045.11
2022-10-22T04:03:52.722Z,100033.47
2022-10-22T04:13:52.376Z,100032.77
2022-10-22T04:24:22.091Z,100025.30
2022-10-22T04:34:40.558Z,99998.42
2022-10-22T04:45:01.178Z,99980.03
2022-10-22T04:55:11.299Z,99987.02
2022-10-22T05:05:17.103Z,99987.78
2022-10-22T05:15:33.002Z,99995.17
2022-10-22T05:25:45.238Z,100003.60
2022-10-22T05:35:54.627Z,100009.98
2022-10-22T05:46:28.289Z,100001.41
2022-10-22T05:56:44.837Z,99999.52
2022-10-22T06:07:02.275Z,99994.55
2022-10-22T06:17:17.764Z,100004.22
2022-10-22T06:27:24.543Z,100017.81
2022-10-22T06:37:43.019Z,100018.44
2022-10-22T06:47:51.730Z,100028.50
2022-10-22T06:58:19.331Z,100028.46
2022-10-22T07:08:23.163Z,100044.13
2022-10-22T07:18:33.893Z,100079.58
2022-10-22T07:28:58.746Z,100069.86
2022-10-22T07:39:08.143Z,100056.05
2022-10-22T07:49:16.845Z,100058.13
2022-10-22T07:59:25.562Z,100067.11
2022-10-22T08:20:58.340Z,100076.83
2022-10-22T08:31:09.228Z,100082.35
2022-10-22T08:41:23.288Z,100071.75
2022-10-22T08:51:44.530Z,100071.23
2022-10-22T09:02:40.075Z,100075.81
2022-10-22T09:13:00.952Z,100096.51
2022-10-22T09:24:19.641Z,100099.84
2022-10-22T11:35:25.788Z,100068.27
2022-10-22T11:59:41.969Z,100064.61
2022-10-22T12:10:18.845Z,100049.48
2022-10-22T12:20:50.571Z,100040.44
2022-10-22T12:31:32.808Z,100040.70
2022-10-22T12:53:26.774Z,100036.58
2022-10-22T13:04:10.392Z,100037.38
2022-10-22T13:14:54.705Z,100056.05
2022-10-22T13:25:41.540Z,100062.94
2022-10-22T13:36:04.262Z,100055.36
2022-10-22T13:46:23.439Z,100051.89
2022-10-22T13:56:35.854Z,100043.34
2022-10-22T14:06:50.482Z,100039.14
2022-10-22T15:02:27.737Z,100026.26
2022-10-22T15:36:09.870Z,100044.59
2022-10-22T15:46:42.748Z,100045.51
2022-10-22T15:57:39.305Z,100046.88
2022-10-22T16:08:28.884Z,100052.89
2022-10-22T16:41:01.490Z,100085.77
2022-10-22T17:02:40.971Z,100090.63
2022-10-22T17:13:34.918Z,100093.30
2022-10-22T17:24:32.013Z,100093.06
2022-10-22T17:35:15.633Z,100097.13
2022-10-22T17:47:08.146Z,100095.83
2022-10-22T17:57:53.358Z,100097.45
2022-10-22T18:08:24.062Z,100101.27
2022-10-22T18:19:11.412Z,100103.35
2022-10-22T18:29:33.592Z,100104.27
2022-10-22T18:39:53.496Z,100105.44
2022-10-22T18:50:22.179Z,100106.22
2022-10-22T19:01:02.012Z,100107.64
2022-10-22T19:34:27.120Z,100118.66
2022-10-22T20:08:40.982Z,100159.38
2022-10-22T20:41:58.301Z,100194.73
2022-10-22T21:38:47.609Z,100213.42
2022-10-22T22:35:47.379Z,100245.93
2022-10-22T23:20:45.955Z,100284.16
2022-10-22T23:43:36.212Z,100296.21
2022-10-22T23:55:18.941Z,100296.64
